Time;durP1;ratioP1;P1;durP2;ratioP2;P2;SDS_P1;SDS_P2;PMS_P1;PMS_P2;Temp;Humidity;BMP_temperature;BMP_pressure;BME280_temperature;BME280_humidity;BME280_pressure;Samples;Min_cycle;Max_cycle;Signal;HPM_P1;HPM_P2
2023/03/08 00:00:41;;;;;;;0.70;0.70;;;-0.40;99.90;;;;;;5052184;28;21053;-77
2023/03/08 00:03:10;;;;;;;0.70;0.70;;;-0.30;99.90;;;;;;5049855;28;20079;-77
2023/03/08 00:05:37;;;;;;;0.70;0.70;;;-0.50;99.90;;;;;;5051669;28;20059;-77
2023/03/08 00:08:02;;;;;;;0.70;0.70;;;-0.20;99.90;;;;;;5054057;28;20055;-77
2023/03/08 00:10:28;;;;;;;0.80;0.80;;;-0.40;99.90;;;;;;5053475;28;20044;-77
2023/03/08 00:12:53;;;;;;;0.80;0.80;;;-0.30;99.90;;;;;;5049224;28;20067;-77
2023/03/08 00:15:19;;;;;;;0.70;0.70;;;-0.20;99.90;;;;;;5036668;28;20044;-77
2023/03/08 00:17:45;;;;;;;0.70;0.70;;;-0.20;99.90;;;;;;5054449;28;20051;-77
2023/03/08 00:20:12;;;;;;;0.77;0.77;;;-0.20;99.90;;;;;;5039430;28;20056;-76
2023/03/08 00:22:39;;;;;;;0.80;0.80;;;-0.40;99.90;;;;;;5038866;28;20090;-77
2023/03/08 00:25:06;;;;;;;0.80;0.80;;;-0.50;99.90;;;;;;5042989;28;20047;-77
2023/03/08 00:27:32;;;;;;;0.75;0.75;;;-0.20;99.90;;;;;;5055413;28;20078;-76
2023/03/08 00:29:57;;;;;;;0.80;0.80;;;-0.30;99.90;;;;;;5056873;28;20513;-76
2023/03/08 00:32:26;;;;;;;0.70;0.70;;;-0.60;99.90;;;;;;5052081;28;20131;-77
2023/03/08 00:34:53;;;;;;;0.80;0.80;;;-0.40;99.90;;;;;;5037207;28;20043;-76
2023/03/08 00:37:19;;;;;;;0.70;0.70;;;-0.30;99.90;;;;;;5054094;28;20507;-76
2023/03/08 00:39:51;;;;;;;0.80;0.80;;;-0.60;99.90;;;;;;5054541;28;20092;-76
2023/03/08 00:42:18;;;;;;;0.70;0.70;;;-0.40;99.90;;;;;;5058671;28;20118;-76
2023/03/08 00:44:43;;;;;;;0.80;0.80;;;-0.30;99.90;;;;;;5069601;28;20052;-77
2023/03/08 00:47:09;;;;;;;0.75;0.75;;;-0.30;99.90;;;;;;5068839;28;20058;-76
2023/03/08 00:49:35;;;;;;;0.73;0.73;;;-0.60;99.90;;;;;;5049649;28;20052;-76
2023/03/08 00:52:01;;;;;;;0.70;0.70;;;-0.40;99.90;;;;;;5064315;28;20079;-76
2023/03/08 00:54:28;;;;;;;0.70;0.70;;;-0.40;99.90;;;;;;5049928;28;20044;-76
2023/03/08 00:56:53;;;;;;;0.80;0.80;;;-0.50;99.90;;;;;;5070947;28;20817;-76
2023/03/08 00:59:19;;;;;;;0.80;0.80;;;-0.40;99.90;;;;;;5049275;28;20056;-76
2023/03/08 01:01:45;;;;;;;0.70;0.70;;;-0.40;99.90;;;;;;5067959;28;20511;-76
2023/03/08 01:04:11;;;;;;;0.80;0.80;;;-0.60;99.90;;;;;;5055292;28;20542;-76
2023/03/08 01:06:38;;;;;;;0.70;0.70;;;-0.60;99.90;;;;;;5075277;28;20043;-77
2023/03/08 01:09:04;;;;;;;0.80;0.80;;;-0.50;99.90;;;;;;5074677;28;20040;-76
2023/03/08 01:11:32;;;;;;;0.80;0.80;;;-0.50;99.90;;;;;;5049576;28;20059;-77
2023/03/08 01:13:58;;;;;;;0.80;0.80;;;-0.50;99.90;;;;;;5075489;28;20150;-76
2023/03/08 01:16:29;;;;;;;0.70;0.70;;;-0.30;99.90;;;;;;5071267;28;20497;-76
2023/03/08 01:18:56;;;;;;;0.80;0.80;;;-0.60;99.90;;;;;;5058860;28;20052;-76
2023/03/08 01:21:22;;;;;;;0.77;0.77;;;-0.40;99.90;;;;;;5070548;28;20044;-76
2023/03/08 01:23:48;;;;;;;0.85;0.85;;;-0.40;99.90;;;;;;5057282;28;20512;-76
2023/03/08 01:26:19;;;;;;;0.70;0.70;;;-0.60;99.90;;;;;;5074144;28;20043;-76
2023/03/08 01:28:45;;;;;;;0.77;0.77;;;-0.30;99.90;;;;;;5054897;28;20044;-76
2023/03/08 01:31:13;;;;;;;0.80;0.80;;;-0.60;99.90;;;;;;5067096;28;20048;-76
2023/03/08 01:33:39;;;;;;;0.80;0.80;;;-0.60;99.90;;;;;;5074412;28;20123;-76
2023/03/08 01:36:07;;;;;;;0.80;0.80;;;-0.60;99.90;;;;;;5052398;28;20055;-76
2023/03/08 01:38:33;;;;;;;0.80;0.80;;;-0.50;99.90;;;;;;5074157;28;20127;-76
2023/03/08 01:41:00;;;;;;;0.80;0.80;;;-0.70;99.90;;;;;;5070922;28;20128;-76
2023/03/08 01:43:31;;;;;;;0.70;0.70;;;-0.40;99.90;;;;;;5070585;28;20044;-76
2023/03/08 01:46:18;;;;;;;0.80;0.80;;;-0.40;99.90;;;;;;5051676;28;20059;-76
2023/03/08 01:48:54;;;;;;;0.80;0.80;;;-0.40;99.90;;;;;;5070794;28;20063;-76
2023/03/08 01:51:43;;;;;;;0.70;0.70;;;-0.40;99.90;;;;;;5059992;28;20040;-76
2023/03/08 01:54:16;;;;;;;0.70;0.70;;;-0.60;99.90;;;;;;5050412;28;20117;-76
2023/03/08 01:56:46;;;;;;;0.80;0.80;;;-0.60;99.90;;;;;;5054411;28;20040;-76
2023/03/08 01:59:13;;;;;;;0.80;0.80;;;-0.60;99.90;;;;;;5070621;28;20036;-76
2023/03/08 02:01:39;;;;;;;0.70;0.70;;;-0.70;99.90;;;;;;5067849;28;20048;-76
2023/03/08 02:04:05;;;;;;;0.70;0.70;;;-0.70;99.90;;;;;;5069787;28;20127;-77
2023/03/08 02:06:32;;;;;;;0.70;0.70;;;-0.40;99.90;;;;;;5053659;28;20482;-76
2023/03/08 02:09:02;;;;;;;0.73;0.73;;;-0.60;99.90;;;;;;5058510;28;20044;-76
2023/03/08 02:11:28;;;;;;;0.80;0.80;;;-0.80;99.90;;;;;;5071757;28;20044;-76
2023/03/08 02:13:55;;;;;;;0.70;0.70;;;-0.60;99.90;;;;;;5070377;28;20048;-76
2023/03/08 02:16:21;;;;;;;0.70;0.70;;;-0.60;99.90;;;;;;5057971;28;20397;-76
2023/03/08 02:18:55;;;;;;;0.70;0.70;;;-0.40;99.90;;;;;;5059412;28;20509;-76
2023/03/08 02:21:20;;;;;;;;;;;-0.40;99.90;;;;;;5059318;28;20040;-76
2023/03/08 02:23:46;;;;;;;0.70;0.70;;;-0.60;99.90;;;;;;5076073;28;19928;-76
2023/03/08 02:26:12;;;;;;;0.75;0.75;;;-0.50;99.90;;;;;;5058045;28;20053;-76
2023/03/08 02:28:38;;;;;;;0.80;0.80;;;-0.40;99.90;;;;;;5042930;28;20075;-76
2023/03/08 02:31:04;;;;;;;0.70;0.70;;;-0.70;99.90;;;;;;5070135;28;20036;-76
2023/03/08 02:33:31;;;;;;;0.70;0.70;;;-0.70;99.90;;;;;;5042283;28;20052;-76
2023/03/08 02:35:57;;;;;;;0.70;0.70;;;-0.60;99.90;;;;;;5075177;28;20055;-76
2023/03/08 02:38:22;;;;;;;0.70;0.70;;;-0.50;99.90;;;;;;5074982;28;20269;-76
2023/03/08 02:40:50;;;;;;;0.80;0.80;;;-0.30;99.90;;;;;;5072781;28;20060;-77
2023/03/08 02:43:17;;;;;;;0.70;0.70;;;-0.40;99.90;;;;;;5072720;28;20044;-76
2023/03/08 02:45:43;;;;;;;0.80;0.80;;;-0.40;99.90;;;;;;5056945;28;20048;-76
2023/03/08 02:48:09;;;;;;;0.80;0.80;;;-0.60;99.90;;;;;;5057391;28;20055;-77
2023/03/08 02:50:37;;;;;;;0.80;0.80;;;-0.60;99.90;;;;;;5068724;28;20040;-77
2023/03/08 02:53:04;;;;;;;0.80;0.80;;;-0.60;99.90;;;;;;5073544;28;20055;-77
2023/03/08 02:55:30;;;;;;;0.80;0.80;;;-0.30;99.90;;;;;;5076134;28;20051;-77
2023/03/08 02:57:55;;;;;;;0.80;0.80;;;-0.40;99.90;;;;;;5057426;28;20044;-77
2023/03/08 03:00:21;;;;;;;0.75;0.75;;;-0.60;99.90;;;;;;5059501;28;20044;-77
2023/03/08 03:02:47;;;;;;;0.80;0.80;;;-0.60;99.90;;;;;;5069357;28;20146;-77
2023/03/08 03:05:13;;;;;;;0.70;0.70;;;-0.30;99.90;;;;;;5039507;28;20066;-76
2023/03/08 03:07:40;;;;;;;0.70;0.70;;;-0.60;99.90;;;;;;5057543;28;20440;-77
2023/03/08 03:10:08;;;;;;;0.80;0.80;;;-0.60;99.90;;;;;;5075270;28;20494;-77
2023/03/08 03:12:34;;;;;;;0.80;0.80;;;-0.30;99.90;;;;;;5070961;28;20554;-77
2023/03/08 03:15:01;;;;;;;0.80;0.80;;;-0.70;99.90;;;;;;5056428;28;20058;-77
2023/03/08 03:17:27;;;;;;;0.80;0.80;;;-0.40;99.90;;;;;;5073622;28;20150;-77
2023/03/08 03:19:53;;;;;;;0.80;0.80;;;-0.70;99.90;;;;;;5076324;28;20901;-77
2023/03/08 03:22:18;;;;;;;0.80;0.80;;;-0.70;99.90;;;;;;5056477;28;20048;-77
2023/03/08 03:24:44;;;;;;;0.80;0.80;;;-0.70;99.90;;;;;;5059530;28;20047;-77
2023/03/08 03:27:10;;;;;;;0.80;0.80;;;-0.80;99.90;;;;;;5058152;28;20052;-77
2023/03/08 03:29:36;;;;;;;0.80;0.80;;;-0.70;99.90;;;;;;5075851;28;20052;-77
2023/03/08 03:32:02;;;;;;;0.80;0.80;;;-0.70;99.90;;;;;;5072868;28;20048;-77
2023/03/08 03:34:28;;;;;;;0.80;0.80;;;-0.90;99.90;;;;;;5072771;28;20036;-77
2023/03/08 03:36:54;;;;;;;0.80;0.80;;;-0.70;99.90;;;;;;5074224;28;20079;-77
2023/03/08 03:39:20;;;;;;;0.80;0.80;;;-0.70;99.90;;;;;;5077328;28;20132;-77
2023/03/08 03:41:46;;;;;;;0.80;0.80;;;-0.90;99.90;;;;;;5068268;28;20043;-77
2023/03/08 03:44:11;;;;;;;1.92;1.83;;;-0.90;99.90;;;;;;5074907;28;20928;-77
2023/03/08 03:46:37;;;;;;;0.80;0.80;;;-1.00;99.90;;;;;;5059695;28;20043;-77
2023/03/08 03:49:03;;;;;;;0.80;0.80;;;-1.10;99.90;;;;;;5071909;28;20143;-77
2023/03/08 03:51:29;;;;;;;0.80;0.80;;;-0.80;99.90;;;;;;5050536;28;20044;-77
2023/03/08 03:53:54;;;;;;;0.80;0.80;;;-0.80;99.90;;;;;;5058311;28;20048;-77
2023/03/08 03:56:25;;;;;;;0.80;0.80;;;-1.00;99.90;;;;;;5058014;28;20131;-77
2023/03/08 03:58:52;;;;;;;0.80;0.80;;;-0.90;99.90;;;;;;5055873;28;20055;-77
2023/03/08 04:01:26;;;;;;;0.80;0.80;;;-0.70;99.90;;;;;;5068932;28;20044;-77
2023/03/08 04:03:52;;;;;;;0.80;0.80;;;-0.60;99.90;;;;;;5057565;28;20064;-77
2023/03/08 04:06:21;;;;;;;0.80;0.80;;;-0.80;99.90;;;;;;5057496;28;20720;-77
2023/03/08 04:08:48;;;;;;;0.70;0.70;;;-0.80;99.90;;;;;;5074948;28;20127;-77
2023/03/08 04:11:16;;;;;;;0.80;0.80;;;-0.60;99.90;;;;;;5067989;28;20399;-77
2023/03/08 04:13:42;;;;;;;0.80;0.80;;;-0.70;99.90;;;;;;5051909;28;20048;-77
2023/03/08 04:16:11;;;;;;;0.80;0.80;;;-0.90;99.90;;;;;;5074847;28;20044;-77
2023/03/08 04:18:37;;;;;;;0.77;0.77;;;-0.90;99.90;;;;;;5057850;28;20044;-77
2023/03/08 04:21:03;;;;;;;0.80;0.80;;;-0.80;99.90;;;;;;5070398;28;20108;-77
2023/03/08 04:23:29;;;;;;;0.80;0.80;;;-0.80;99.90;;;;;;5073911;28;20097;-77
2023/03/08 04:25:55;;;;;;;0.80;0.80;;;-0.70;99.90;;;;;;5072431;28;20539;-77
2023/03/08 04:28:20;;;;;;;0.80;0.80;;;-0.70;99.90;;;;;;5056813;28;20044;-78
2023/03/08 04:30:46;;;;;;;0.80;0.80;;;-1.00;99.90;;;;;;5074715;28;20104;-77
2023/03/08 04:33:12;;;;;;;0.80;0.80;;;-0.70;99.90;;;;;;5049961;28;20827;-77
2023/03/08 04:35:37;;;;;;;0.80;0.80;;;-0.70;99.90;;;;;;5070366;28;20051;-77
2023/03/08 04:38:03;;;;;;;0.80;0.80;;;-0.70;99.90;;;;;;5073515;28;20052;-77
2023/03/08 04:40:28;;;;;;;0.80;0.80;;;-0.70;99.90;;;;;;5074726;28;20677;-77
2023/03/08 04:42:55;;;;;;;0.80;0.80;;;-1.00;99.90;;;;;;5070167;28;20088;-77
2023/03/08 04:45:20;;;;;;;0.80;0.80;;;-0.70;99.90;;;;;;5056489;28;20436;-77
2023/03/08 04:47:46;;;;;;;0.70;0.70;;;-1.00;99.90;;;;;;5037731;28;20048;-77
2023/03/08 04:50:12;;;;;;;0.70;0.70;;;-0.90;99.90;;;;;;5072557;28;20043;-78
2023/03/08 04:52:37;;;;;;;0.70;0.70;;;-1.10;99.90;;;;;;5051320;28;20085;-78
2023/03/08 04:55:03;;;;;;;0.80;0.80;;;-1.10;99.90;;;;;;5075880;28;20047;-78
2023/03/08 04:57:29;;;;;;;0.80;0.80;;;-1.00;99.90;;;;;;5057215;28;20048;-77
2023/03/08 04:59:55;;;;;;;0.80;0.80;;;-1.00;99.90;;;;;;5056668;28;20086;-78
2023/03/08 05:02:22;;;;;;;0.80;0.80;;;-0.80;99.90;;;;;;5069685;28;20047;-78
2023/03/08 05:04:47;;;;;;;0.70;0.70;;;-1.00;99.90;;;;;;5071965;28;20174;-77
2023/03/08 05:07:13;;;;;;;0.80;0.80;;;-1.20;99.90;;;;;;5073046;28;20780;-77
2023/03/08 05:09:39;;;;;;;0.80;0.80;;;-1.00;99.90;;;;;;5053343;28;20778;-78
2023/03/08 05:12:05;;;;;;;0.80;0.80;;;-1.20;99.90;;;;;;5052437;28;20124;-77
2023/03/08 05:14:31;;;;;;;0.80;0.80;;;-1.30;99.90;;;;;;5053913;28;20044;-77
2023/03/08 05:16:57;;;;;;;0.80;0.80;;;-1.10;99.90;;;;;;5071713;28;20534;-78
2023/03/08 05:19:23;;;;;;;0.80;0.80;;;-1.20;99.90;;;;;;5056061;28;20396;-77
2023/03/08 05:21:49;;;;;;;0.80;0.80;;;-1.10;99.90;;;;;;5052060;28;20053;-78
2023/03/08 05:24:15;;;;;;;0.80;0.80;;;-1.30;99.90;;;;;;5051905;28;20049;-77
2023/03/08 05:26:40;;;;;;;0.80;0.80;;;-1.10;99.90;;;;;;5052215;28;20048;-77
2023/03/08 05:29:06;;;;;;;0.80;0.80;;;-1.20;99.90;;;;;;5074242;28;20136;-78
2023/03/08 05:31:32;;;;;;;0.80;0.80;;;-1.20;99.90;;;;;;5053906;28;20040;-77
2023/03/08 05:33:58;;;;;;;0.80;0.80;;;-1.10;99.90;;;;;;5070755;28;20536;-77
2023/03/08 05:36:24;;;;;;;0.80;0.80;;;-1.10;99.90;;;;;;5058196;28;20040;-78
2023/03/08 05:38:54;;;;;;;0.80;0.80;;;-1.00;99.90;;;;;;5054919;28;20079;-78
2023/03/08 05:41:20;;;;;;;0.80;0.80;;;-0.80;99.90;;;;;;5051486;28;20435;-78
2023/03/08 05:43:46;;;;;;;0.80;0.80;;;-0.80;99.90;;;;;;5071253;28;20082;-78
2023/03/08 05:46:17;;;;;;;0.77;0.77;;;-1.00;99.90;;;;;;5073386;28;20043;-78
2023/03/08 05:48:44;;;;;;;0.80;0.80;;;-0.90;99.90;;;;;;5054582;28;20099;-78
2023/03/08 05:51:12;;;;;;;0.80;0.80;;;-0.80;99.90;;;;;;5072681;28;20110;-78
2023/03/08 05:53:39;;;;;;;0.80;0.80;;;-0.60;99.90;;;;;;5056005;28;20059;-78
2023/03/08 05:56:19;;;;;;;0.80;0.80;;;-0.80;99.90;;;;;;5073657;28;20059;-78
2023/03/08 05:58:45;;;;;;;0.80;0.80;;;-1.00;99.90;;;;;;5052334;28;20417;-78
2023/03/08 06:01:20;;;;;;;0.80;0.80;;;-0.80;99.90;;;;;;5066230;28;20052;-78
2023/03/08 06:03:49;;;;;;;0.80;0.80;;;-1.00;99.90;;;;;;5059352;28;20044;-78
2023/03/08 06:06:15;;;;;;;0.80;0.80;;;-0.70;99.90;;;;;;5059934;28;20054;-78
2023/03/08 06:08:41;;;;;;;0.80;0.80;;;-0.70;99.90;;;;;;5041526;28;20485;-78
2023/03/08 06:11:07;;;;;;;0.80;0.80;;;-0.90;99.90;;;;;;5040735;28;20048;-78
2023/03/08 06:13:33;;;;;;;0.80;0.80;;;-0.80;99.90;;;;;;5055982;28;20149;-78
2023/03/08 06:16:00;;;;;;;0.90;0.90;;;-0.70;99.90;;;;;;5054264;28;20493;-78
2023/03/08 06:18:26;;;;;;;0.80;0.80;;;-0.60;99.90;;;;;;5032955;28;20056;-78
2023/03/08 06:21:04;;;;;;;0.80;0.80;;;-0.90;99.90;;;;;;5060989;28;20097;-78
2023/03/08 06:23:31;;;;;;;0.80;0.80;;;-0.70;99.90;;;;;;5052854;28;20051;-78
2023/03/08 06:25:57;;;;;;;0.80;0.80;;;-0.90;99.90;;;;;;5031822;28;20051;-78
2023/03/08 06:28:25;;;;;;;0.80;0.80;;;-0.80;99.90;;;;;;5058249;28;20051;-78
2023/03/08 06:30:51;;;;;;;0.85;0.85;;;-0.90;99.90;;;;;;5060751;28;20134;-78
2023/03/08 06:33:18;;;;;;;0.80;0.80;;;-0.90;99.90;;;;;;5059064;28;20059;-78
2023/03/08 06:35:59;;;;;;;0.80;0.80;;;-1.00;99.90;;;;;;5062523;28;20039;-78
2023/03/08 06:38:26;;;;;;;0.80;0.80;;;-0.80;99.90;;;;;;5059641;28;20052;-78
2023/03/08 06:40:52;;;;;;;0.80;0.80;;;-0.60;99.90;;;;;;5064259;28;20076;-78
2023/03/08 06:43:18;;;;;;;0.80;0.80;;;-0.90;99.90;;;;;;5042326;28;20147;-78
2023/03/08 06:45:47;;;;;;;0.80;0.80;;;-0.80;99.90;;;;;;5045904;28;20524;-78
2023/03/08 06:48:13;;;;;;;0.80;0.80;;;-0.80;99.90;;;;;;5028690;28;20083;-76
2023/03/08 06:50:51;;;;;;;0.80;0.80;;;-0.80;99.90;;;;;;5060988;28;20150;-78
2023/03/08 06:53:16;;;;;;;0.70;0.70;;;-0.70;99.90;;;;;;5045250;28;20040;-77
2023/03/08 06:55:42;;;;;;;0.77;0.77;;;-0.60;99.90;;;;;;5063816;28;20036;-78
2023/03/08 06:58:08;;;;;;;0.80;0.80;;;-0.80;99.90;;;;;;5038146;28;20052;-78
2023/03/08 07:00:34;;;;;;;0.80;0.80;;;-0.60;99.90;;;;;;5059932;28;20044;-78
2023/03/08 07:03:00;;;;;;;0.80;0.80;;;-0.60;99.90;;;;;;5060619;28;20047;-78
2023/03/08 07:05:26;;;;;;;0.90;0.90;;;-0.40;99.90;;;;;;5046312;28;20924;-78
2023/03/08 07:07:52;;;;;;;0.80;0.80;;;-0.30;99.90;;;;;;5055946;28;20051;-78
2023/03/08 07:10:20;;;;;;;0.80;0.80;;;-0.20;99.90;;;;;;5056392;28;20056;-77
2023/03/08 07:12:49;;;;;;;0.80;0.80;;;-0.10;99.90;;;;;;5072959;28;20493;-78
2023/03/08 07:15:17;;;;;;;0.80;0.80;;;-0.20;99.90;;;;;;5053203;28;20493;-78
2023/03/08 07:17:45;;;;;;;0.80;0.80;;;-0.10;99.90;;;;;;5059849;28;20056;-77
2023/03/08 07:20:12;;;;;;;0.80;0.80;;;-0.10;99.90;;;;;;5036433;28;20238;-78
2023/03/08 07:22:43;;;;;;;0.80;0.80;;;-0.30;99.90;;;;;;5072675;28;20044;-78
2023/03/08 07:25:11;;;;;;;0.80;0.80;;;-0.10;99.90;;;;;;5074966;28;20044;-78
2023/03/08 07:27:37;;;;;;;0.80;0.80;;;0.00;99.90;;;;;;5072524;28;20493;-78
2023/03/08 07:30:03;;;;;;;0.80;0.80;;;0.10;99.90;;;;;;5057068;28;20078;-77
2023/03/08 07:32:29;;;;;;;0.80;0.80;;;0.10;99.90;;;;;;5057843;28;20498;-78
2023/03/08 07:34:56;;;;;;;0.80;0.80;;;-0.10;99.90;;;;;;5077162;28;20052;-77
2023/03/08 07:37:22;;;;;;;0.80;0.80;;;0.00;99.90;;;;;;5057775;28;21640;-77
2023/03/08 07:39:47;;;;;;;0.70;0.70;;;0.20;99.90;;;;;;5057039;28;20059;-77
2023/03/08 07:42:13;;;;;;;0.80;0.80;;;0.20;99.90;;;;;;5074254;28;20040;-78
2023/03/08 07:44:39;;;;;;;0.80;0.80;;;0.20;99.90;;;;;;5057670;28;20112;-78
2023/03/08 07:47:06;;;;;;;0.80;0.80;;;0.10;99.90;;;;;;5057919;28;20686;-78
2023/03/08 07:49:32;;;;;;;0.80;0.80;;;0.30;99.90;;;;;;5058733;28;20076;-77
2023/03/08 07:51:58;;;;;;;0.80;0.80;;;0.20;99.90;;;;;;5072393;28;20828;-78
2023/03/08 07:54:24;;;;;;;0.80;0.80;;;0.30;99.90;;;;;;5057548;28;20048;-78
2023/03/08 07:56:54;;;;;;;0.80;0.80;;;0.30;99.90;;;;;;5075020;28;20048;-78
2023/03/08 07:59:21;;;;;;;0.80;0.80;;;0.60;99.90;;;;;;5066621;28;20052;-77
2023/03/08 08:01:46;;;;;;;0.80;0.80;;;0.40;99.90;;;;;;5036154;28;21062;-77
2023/03/08 08:04:12;;;;;;;0.80;0.80;;;0.30;99.90;;;;;;5063406;28;20052;-78
2023/03/08 08:06:38;;;;;;;0.80;0.80;;;0.60;99.90;;;;;;5061685;28;20044;-77
2023/03/08 08:09:06;;;;;;;0.80;0.80;;;0.90;99.90;;;;;;5055988;28;20102;-77
2023/03/08 08:11:31;;;;;;;0.80;0.80;;;0.80;99.90;;;;;;5068160;28;20048;-77
2023/03/08 08:13:57;;;;;;;0.80;0.80;;;0.80;99.90;;;;;;5052286;28;20058;-77
2023/03/08 08:16:24;;;;;;;0.80;0.80;;;0.70;99.90;;;;;;5052227;28;20048;-77
2023/03/08 08:18:51;;;;;;;0.70;0.70;;;0.80;99.90;;;;;;5066618;28;20044;-78
2023/03/08 08:21:17;;;;;;;0.80;0.80;;;0.90;99.90;;;;;;5047358;28;20139;-78
2023/03/08 08:23:43;;;;;;;0.80;0.80;;;0.90;99.90;;;;;;5069429;28;20101;-77
2023/03/08 08:26:15;;;;;;;0.80;0.80;;;0.80;99.90;;;;;;5072018;28;20134;-78
2023/03/08 08:28:41;;;;;;;0.80;0.80;;;0.50;99.90;;;;;;5046948;28;20432;-77
2023/03/08 08:31:10;;;;;;;0.80;0.80;;;0.90;99.90;;;;;;5067051;28;20048;-77
2023/03/08 08:33:36;;;;;;;0.80;0.80;;;0.70;99.90;;;;;;5070647;28;20391;-78
2023/03/08 08:36:05;;;;;;;0.77;0.77;;;0.70;99.90;;;;;;5074213;28;20039;-78
2023/03/08 08:38:30;;;;;;;0.80;0.80;;;0.30;99.90;;;;;;5076095;28;20052;-78
2023/03/08 08:41:04;;;;;;;0.80;0.80;;;0.60;99.90;;;;;;5073077;28;20390;-77
2023/03/08 08:43:32;;;;;;;0.80;0.80;;;0.50;99.90;;;;;;5074858;28;20073;-78
2023/03/08 08:45:58;;;;;;;0.80;0.80;;;0.60;99.90;;;;;;5073230;28;20493;-78
2023/03/08 08:48:25;;;;;;;0.80;0.80;;;0.70;99.90;;;;;;5073569;28;20040;-78
2023/03/08 08:50:51;;;;;;;0.80;0.80;;;0.30;99.90;;;;;;5040622;28;20052;-78
2023/03/08 08:53:18;;;;;;;0.80;0.80;;;0.40;99.90;;;;;;5073737;28;20749;-78
2023/03/08 08:55:44;;;;;;;0.73;0.73;;;0.20;99.90;;;;;;5073604;28;20048;-77
2023/03/08 08:58:10;;;;;;;0.80;0.80;;;0.40;99.90;;;;;;5058261;28;20457;-78
2023/03/08 09:00:37;;;;;;;0.80;0.80;;;0.40;99.90;;;;;;5057008;28;20044;-78
2023/03/08 09:03:04;;;;;;;0.70;0.70;;;0.30;99.90;;;;;;5069713;28;20297;-78
2023/03/08 09:05:30;;;;;;;0.80;0.80;;;0.60;99.90;;;;;;5070960;28;20079;-78
2023/03/08 09:07:58;;;;;;;0.80;0.80;;;0.50;99.90;;;;;;5071068;28;20624;-78
2023/03/08 09:10:27;;;;;;;0.80;0.80;;;0.30;99.90;;;;;;5066577;28;20083;-78
2023/03/08 09:12:52;;;;;;;0.80;0.80;;;0.60;99.90;;;;;;5070379;28;20237;-78
2023/03/08 09:15:18;;;;;;;0.70;0.70;;;0.70;99.90;;;;;;5056853;28;20048;-78
2023/03/08 09:17:44;;;;;;;0.80;0.80;;;0.70;99.90;;;;;;5073786;28;20147;-78
2023/03/08 09:20:10;;;;;;;0.80;0.80;;;0.90;99.90;;;;;;5073276;28;20443;-79
2023/03/08 09:22:37;;;;;;;0.80;0.80;;;1.20;99.90;;;;;;5072523;28;20130;-79
2023/03/08 09:25:04;;;;;;;0.80;0.80;;;1.10;99.90;;;;;;5060293;28;20047;-78
2023/03/08 09:27:30;;;;;;;0.80;0.80;;;1.00;99.90;;;;;;5080101;28;20043;-79
2023/03/08 09:29:57;;;;;;;0.80;0.80;;;0.90;99.90;;;;;;5079285;28;20048;-78
2023/03/08 09:32:22;;;;;;;0.70;0.70;;;1.00;99.90;;;;;;5057690;28;20569;-78
2023/03/08 09:34:48;;;;;;;0.80;0.80;;;0.80;99.90;;;;;;5058618;28;20052;-78
2023/03/08 09:37:14;;;;;;;0.80;0.80;;;0.70;99.90;;;;;;5075251;28;20055;-78
2023/03/08 09:39:40;;;;;;;0.80;0.80;;;0.80;99.90;;;;;;5058703;28;20401;-76
2023/03/08 09:42:20;;;;;;;0.80;0.80;;;0.90;99.90;;;;;;5074679;28;20100;-79
2023/03/08 09:44:55;;;;;;;0.80;0.80;;;0.90;99.90;;;;;;5075025;28;20048;-78
2023/03/08 09:47:40;;;;;;;0.80;0.80;;;0.80;99.90;;;;;;5061563;28;20059;-78
2023/03/08 09:50:06;;;;;;;0.80;0.80;;;1.20;99.90;;;;;;5060476;28;20600;-78
2023/03/08 09:52:39;;;;;;;0.80;0.80;;;1.20;99.90;;;;;;5057314;28;20082;-78
2023/03/08 09:55:15;;;;;;;0.80;0.80;;;1.30;99.90;;;;;;5073511;28;20040;-78
2023/03/08 09:57:51;;;;;;;0.80;0.80;;;1.10;99.90;;;;;;5066824;28;20439;-79
2023/03/08 10:00:30;;;;;;;0.80;0.80;;;1.60;99.90;;;;;;5051585;28;20084;-78
2023/03/08 10:03:28;;;;;;;0.73;0.73;;;1.50;99.90;;;;;;5067325;28;20408;-78
2023/03/08 10:06:10;;;;;;;0.70;0.70;;;1.60;99.90;;;;;;5036731;28;20090;-78
2023/03/08 10:08:57;;;;;;;0.80;0.80;;;1.70;99.90;;;;;;5048716;28;20825;-78
2023/03/08 10:11:36;;;;;;;0.80;0.80;;;1.80;99.90;;;;;;5068555;28;20498;-78
2023/03/08 10:14:33;;;;;;;0.80;0.80;;;1.90;99.90;;;;;;5057598;28;20048;-78
2023/03/08 10:17:10;;;;;;;0.80;0.80;;;2.00;99.90;;;;;;5060329;28;20067;-78
2023/03/08 10:19:57;;;;;;;0.80;0.80;;;2.20;99.90;;;;;;5050159;28;20603;-78
2023/03/08 10:22:27;;;;;;;0.70;0.70;;;2.40;99.90;;;;;;5055348;28;20486;-78
2023/03/08 10:24:56;;;;;;;0.70;0.70;;;1.90;99.90;;;;;;5074973;28;20043;-78
2023/03/08 10:27:28;;;;;;;0.70;0.70;;;2.20;99.90;;;;;;5058435;28;20052;-79
2023/03/08 10:29:56;;;;;;;0.70;0.70;;;2.30;99.90;;;;;;5075127;28;20090;-78
2023/03/08 10:32:23;;;;;;;0.70;0.70;;;2.40;99.90;;;;;;5052632;28;20044;-80
2023/03/08 10:34:49;;;;;;;0.73;0.73;;;2.50;99.90;;;;;;5076131;28;20040;-78
2023/03/08 10:37:16;;;;;;;0.80;0.80;;;2.10;99.90;;;;;;5059150;28;20139;-79
2023/03/08 10:39:53;;;;;;;0.75;0.75;;;2.10;99.90;;;;;;5061209;28;20043;-78
2023/03/08 10:42:26;;;;;;;0.80;0.80;;;2.40;99.90;;;;;;5054357;28;20409;-78
2023/03/08 10:45:13;;;;;;;0.70;0.70;;;2.80;99.90;;;;;;5043054;28;20056;-78
2023/03/08 10:47:39;;;;;;;0.80;0.80;;;2.80;99.90;;;;;;5076238;28;20044;-79
2023/03/08 10:50:13;;;;;;;0.80;0.80;;;2.50;99.90;;;;;;5059666;28;20048;-79
2023/03/08 10:52:40;;;;;;;0.80;0.80;;;2.00;99.90;;;;;;5073732;28;20126;-79
2023/03/08 10:55:09;;;;;;;0.70;0.70;;;2.00;99.90;;;;;;5074972;28;20059;-79
2023/03/08 10:57:35;;;;;;;0.80;0.80;;;2.20;99.90;;;;;;5073755;28;20040;-79
2023/03/08 11:00:18;;;;;;;0.80;0.80;;;2.30;99.90;;;;;;5058717;28;20113;-79
2023/03/08 11:02:45;;;;;;;0.80;0.80;;;2.50;99.90;;;;;;5056694;28;20105;-78
2023/03/08 11:05:25;;;;;;;0.80;0.80;;;2.80;99.90;;;;;;5077557;28;20048;-79
2023/03/08 11:07:56;;;;;;;0.80;0.80;;;2.50;99.90;;;;;;5075848;28;20047;-79
2023/03/08 11:10:27;;;;;;;0.70;0.70;;;2.40;99.90;;;;;;5077238;28;20044;-79
2023/03/08 11:13:23;;;;;;;0.80;0.80;;;2.50;99.90;;;;;;5073361;28;20618;-79
2023/03/08 11:16:02;;;;;;;0.80;0.80;;;2.60;99.90;;;;;;5059178;28;20537;-79
2023/03/08 11:18:46;;;;;;;0.70;0.70;;;2.30;99.90;;;;;;5076649;28;20119;-80
2023/03/08 11:21:31;;;;;;;0.80;0.80;;;2.60;99.90;;;;;;5058330;28;20126;-79
2023/03/08 11:24:19;;;;;;;0.73;0.73;;;2.80;99.90;;;;;;5077273;28;20062;-79
2023/03/08 11:27:04;;;;;;;0.80;0.80;;;2.90;99.90;;;;;;5057437;28;20095;-78
2023/03/08 11:29:35;;;;;;;0.80;0.80;;;3.10;99.90;;;;;;5078960;28;20090;-79
2023/03/08 11:32:07;;;;;;;0.75;0.75;;;2.70;99.90;;;;;;5055436;28;20130;-80
2023/03/08 11:35:16;;;;;;;0.70;0.70;;;3.10;99.90;;;;;;5077580;28;20048;-79
2023/03/08 11:37:52;;;;;;;0.70;0.70;;;2.90;99.90;;;;;;5038064;28;20094;-80
2023/03/08 11:40:21;;;;;;;0.70;0.70;;;2.80;99.90;;;;;;5076920;28;20048;-80
2023/03/08 11:42:55;;;;;;;0.70;0.70;;;2.90;99.90;;;;;;5056215;28;20519;-80
2023/03/08 11:45:41;;;;;;;0.70;0.70;;;2.90;99.90;;;;;;5059498;28;20059;-80
2023/03/08 11:48:25;;;;;;;0.70;0.70;;;3.00;99.90;;;;;;5055859;28;20051;-79
2023/03/08 11:51:05;;;;;;;0.70;0.70;;;2.80;99.90;;;;;;5057575;28;20048;-79
2023/03/08 11:53:48;;;;;;;0.70;0.70;;;3.00;99.90;;;;;;5058532;28;20665;-79
2023/03/08 11:56:49;;;;;;;0.70;0.70;;;3.20;99.90;;;;;;5072063;28;20044;-79
2023/03/08 11:59:32;;;;;;;0.70;0.70;;;3.40;99.90;;;;;;5072966;28;20075;-79
2023/03/08 12:02:09;;;;;;;;;;;3.50;99.90;;;;;;5054053;28;20044;-79
2023/03/08 12:04:53;;;;;;;0.80;0.80;;;3.70;99.90;;;;;;5077947;28;19924;-79
2023/03/08 12:07:24;;;;;;;0.80;0.80;;;3.70;99.90;;;;;;5074900;28;20047;-80
2023/03/08 12:10:20;;;;;;;0.70;0.70;;;3.20;99.90;;;;;;5057446;28;20088;-80
2023/03/08 12:12:54;;;;;;;0.70;0.70;;;3.40;99.90;;;;;;5070468;28;20836;-80
2023/03/08 12:15:46;;;;;;;0.70;0.70;;;3.40;99.90;;;;;;5053789;28;20651;-79
2023/03/08 12:18:30;;;;;;;0.70;0.70;;;3.50;99.90;;;;;;5072993;28;20044;-80
2023/03/08 12:21:19;;;;;;;0.73;0.73;;;3.40;99.90;;;;;;5074470;28;20066;-79
2023/03/08 12:24:03;;;;;;;0.70;0.70;;;3.60;99.90;;;;;;5076844;28;20039;-79
2023/03/08 12:26:39;;;;;;;0.70;0.70;;;3.50;99.90;;;;;;5041642;28;20048;-80
2023/03/08 12:29:14;;;;;;;0.80;0.80;;;3.60;99.90;;;;;;5074510;28;20040;-79
2023/03/08 12:31:45;;;;;;;0.70;0.70;;;3.70;99.90;;;;;;5055655;28;20426;-79
2023/03/08 12:34:24;;;;;;;0.70;0.70;;;3.80;99.90;;;;;;5076560;28;20044;-79
2023/03/08 12:36:50;;;;;;;0.70;0.70;;;3.80;99.90;;;;;;5074951;28;20051;-79
2023/03/08 12:39:26;;;;;;;0.70;0.70;;;3.60;99.90;;;;;;5072398;28;20063;-79
2023/03/08 12:42:10;;;;;;;0.77;0.77;;;3.80;99.90;;;;;;5069113;28;20047;-80
2023/03/08 12:44:37;;;;;;;0.80;0.80;;;3.70;99.90;;;;;;5077345;28;20105;-79
2023/03/08 12:47:12;;;;;;;0.70;0.70;;;3.60;99.90;;;;;;5058556;28;20461;-80
2023/03/08 12:49:42;;;;;;;0.70;0.70;;;3.70;99.90;;;;;;5058638;28;20140;-79
2023/03/08 12:52:16;;;;;;;0.70;0.70;;;3.80;99.90;;;;;;5070696;28;20437;-79
2023/03/08 12:54:54;;;;;;;0.70;0.70;;;4.00;99.90;;;;;;5058270;28;20439;-79
2023/03/08 12:57:23;;;;;;;0.70;0.70;;;4.00;99.90;;;;;;5072425;28;20049;-79
2023/03/08 12:59:57;;;;;;;0.70;0.70;;;4.00;99.90;;;;;;5057115;28;20493;-79
2023/03/08 13:02:31;;;;;;;;;;;4.20;99.90;;;;;;5074049;28;20408;-79
2023/03/08 13:05:16;;;;;;;0.70;0.70;;;4.30;99.90;;;;;;5076157;28;20541;-79